createdAt,value
2018-09-10T00:00:21.776Z,0
2018-09-10T00:01:22.352Z,0
2018-09-10T00:02:22.925Z,0
2018-09-10T00:03:23.501Z,0
2018-09-10T00:04:24.077Z,0
2018-09-10T00:05:24.651Z,0
2018-09-10T00:06:25.225Z,0
2018-09-10T00:07:25.800Z,0
2018-09-10T00:08:26.376Z,0
2018-09-10T00:09:26.946Z,0
2018-09-10T00:10:27.522Z,0
2018-09-10T00:11:28.100Z,0
2018-09-10T00:12:28.681Z,0
2018-09-10T00:13:29.255Z,0
2018-09-10T00:14:29.828Z,0
2018-09-10T00:15:30.405Z,0
2018-09-10T00:16:30.975Z,0
2018-09-10T00:17:31.549Z,0
2018-09-10T00:18:32.125Z,0
2018-09-10T00:19:32.696Z,0
2018-09-10T00:20:33.273Z,0
2018-09-10T00:21:33.855Z,0
2018-09-10T00:22:34.429Z,0
2018-09-10T00:23:35.001Z,0
2018-09-10T00:24:35.577Z,0
2018-09-10T00:25:36.164Z,0
2018-09-10T00:26:36.747Z,0
2018-09-10T00:27:37.330Z,0
2018-09-10T00:28:37.903Z,0
2018-09-10T00:29:38.477Z,0
2018-09-10T00:30:39.051Z,0
2018-09-10T00:31:39.624Z,0
2018-09-10T00:32:40.199Z,0
2018-09-10T00:33:40.772Z,0
2018-09-10T00:34:41.349Z,0
2018-09-10T00:35:41.931Z,0
2018-09-10T00:36:42.505Z,0
2018-09-10T00:37:43.078Z,0
2018-09-10T00:38:43.653Z,0
2018-09-10T00:39:44.225Z,0
2018-09-10T00:40:44.803Z,0
2018-09-10T00:41:45.386Z,0
2018-09-10T00:42:45.958Z,0
2018-09-10T00:43:46.531Z,0
2018-09-10T00:44:47.105Z,0
2018-09-10T00:45:47.678Z,0
2018-09-10T00:46:48.264Z,0
2018-09-10T00:47:48.840Z,0
2018-09-10T00:48:49.419Z,0
2018-09-10T00:49:49.988Z,0
2018-09-10T00:50:50.559Z,0
2018-09-10T00:51:51.133Z,0
2018-09-10T00:52:51.706Z,0
2018-09-10T00:53:52.280Z,0
2018-09-10T00:54:52.853Z,0
2018-09-10T00:55:53.427Z,0
2018-09-10T00:56:54.007Z,0
2018-09-10T00:57:54.578Z,0
2018-09-10T00:58:55.151Z,0
2018-09-10T00:59:55.727Z,0
2018-09-10T01:00:56.302Z,0
2018-09-10T01:01:56.877Z,0
2018-09-10T01:02:57.458Z,0
2018-09-10T01:03:58.033Z,0
2018-09-10T01:04:58.607Z,0
2018-09-10T01:05:59.180Z,0
2018-09-10T01:06:59.755Z,0
2018-09-10T01:08:00.328Z,0
2018-09-10T01:09:00.913Z,0
2018-09-10T01:10:01.489Z,0
2018-09-10T01:11:02.073Z,0
2018-09-10T01:12:02.651Z,0
2018-09-10T01:13:03.222Z,0
2018-09-10T01:14:03.797Z,0
2018-09-10T01:15:04.376Z,0
2018-09-10T01:16:04.957Z,0
2018-09-10T01:17:05.532Z,0
2018-09-10T01:18:06.107Z,0
2018-09-10T01:19:06.681Z,0
2018-09-10T01:20:07.256Z,0
2018-09-10T01:21:07.830Z,0
2018-09-10T01:22:08.404Z,0
2018-09-10T01:23:08.989Z,0
2018-09-10T01:24:09.564Z,0
2018-09-10T01:25:10.139Z,0
2018-09-10T01:26:10.713Z,0
2018-09-10T01:27:11.286Z,0
2018-09-10T01:28:11.858Z,0
2018-09-10T01:29:12.433Z,0
2018-09-10T01:30:13.005Z,0
2018-09-10T01:31:13.577Z,0
2018-09-10T01:32:14.152Z,0
2018-09-10T01:33:14.725Z,0
2018-09-10T01:34:15.299Z,0
2018-09-10T01:35:15.872Z,0
2018-09-10T01:36:16.447Z,0
2018-09-10T01:37:17.022Z,0
2018-09-10T01:38:17.598Z,0
2018-09-10T01:39:18.174Z,0
2018-09-10T01:40:18.745Z,0
2018-09-10T01:41:19.318Z,0
2018-09-10T01:42:19.891Z,0
2018-09-10T01:43:20.470Z,0
2018-09-10T01:44:21.041Z,0
2018-09-10T01:45:21.623Z,0
2018-09-10T01:46:22.196Z,0
2018-09-10T01:47:22.771Z,0
2018-09-10T01:48:23.342Z,0
2018-09-10T01:49:23.918Z,0
2018-09-10T01:50:24.490Z,0
2018-09-10T01:51:25.063Z,0
2018-09-10T01:52:25.637Z,0
2018-09-10T01:53:26.210Z,0
2018-09-10T01:54:26.782Z,0
2018-09-10T01:55:27.354Z,0
2018-09-10T01:56:27.927Z,0
2018-09-10T01:57:28.500Z,0
2018-09-10T01:58:29.076Z,0
2018-09-10T01:59:29.651Z,0
2018-09-10T02:00:30.233Z,0
2018-09-10T02:01:30.807Z,0
2018-09-10T02:02:31.379Z,0
2018-09-10T02:03:31.952Z,0
2018-09-10T02:04:32.525Z,0
2018-09-10T02:05:33.098Z,0
2018-09-10T02:06:33.673Z,0
2018-09-10T02:07:34.248Z,0
2018-09-10T02:08:34.821Z,0
2018-09-10T02:09:35.397Z,0
2018-09-10T02:10:35.969Z,0
2018-09-10T02:11:36.548Z,0
2018-09-10T02:12:37.118Z,0
2018-09-10T02:13:37.704Z,0
2018-09-10T02:14:38.285Z,0
2018-09-10T02:15:38.852Z,0
2018-09-10T02:16:39.425Z,0
2018-09-10T02:17:40.012Z,0
2018-09-10T02:18:40.592Z,0
2018-09-10T02:19:41.158Z,0
2018-09-10T02:20:41.731Z,0
2018-09-10T02:21:42.304Z,0
2018-09-10T02:22:42.878Z,0
2018-09-10T02:23:43.518Z,0
2018-09-10T02:24:44.024Z,0
2018-09-10T02:25:44.597Z,0
2018-09-10T02:26:45.170Z,0
2018-09-10T02:27:45.781Z,0
2018-09-10T02:28:46.316Z,0
2018-09-10T02:29:46.890Z,0
2018-09-10T02:30:47.465Z,0
2018-09-10T02:31:48.039Z,0
2018-09-10T02:32:48.622Z,0
2018-09-10T02:33:49.209Z,0
2018-09-10T02:34:49.790Z,0
2018-09-10T02:35:50.363Z,0
2018-09-10T02:36:50.937Z,0
2018-09-10T02:37:51.510Z,0
2018-09-10T02:38:52.085Z,0
2018-09-10T02:39:52.656Z,0
2018-09-10T02:40:53.232Z,0
2018-09-10T02:41:53.807Z,0
2018-09-10T02:42:54.391Z,0
2018-09-10T02:43:54.966Z,0
2018-09-10T02:44:55.539Z,0
2018-09-10T02:45:56.114Z,0
2018-09-10T02:46:56.686Z,0
2018-09-10T02:47:57.260Z,0
2018-09-10T02:48:57.833Z,0
2018-09-10T02:49:58.405Z,0
2018-09-10T02:50:58.978Z,0
2018-09-10T02:51:59.550Z,0
2018-09-10T02:53:00.122Z,0
2018-09-10T02:54:00.694Z,0
2018-09-10T02:55:01.381Z,0
2018-09-10T02:56:01.840Z,0
2018-09-10T02:57:02.423Z,0
2018-09-10T02:58:03.001Z,0
2018-09-10T02:59:03.572Z,0
2018-09-10T03:00:04.145Z,0
2018-09-10T03:01:04.717Z,0
2018-09-10T03:02:05.290Z,0
2018-09-10T03:03:05.874Z,0
2018-09-10T03:04:06.448Z,0
2018-09-10T03:05:07.037Z,0
2018-09-10T03:06:07.607Z,0
2018-09-10T03:07:08.184Z,0
2018-09-10T03:08:08.764Z,0
2018-09-10T03:09:09.338Z,0
2018-09-10T03:10:09.913Z,0
2018-09-10T03:11:10.497Z,0
2018-09-10T03:12:11.070Z,0
2018-09-10T03:13:11.643Z,0
2018-09-10T03:14:12.218Z,0
2018-09-10T03:15:12.799Z,0
2018-09-10T03:16:13.381Z,0
2018-09-10T03:17:13.953Z,0
2018-09-10T03:18:14.526Z,0
2018-09-10T03:19:15.100Z,0
2018-09-10T03:20:15.674Z,0
2018-09-10T03:21:16.256Z,0
2018-09-10T03:22:16.825Z,0
2018-09-10T03:23:17.396Z,0
2018-09-10T03:24:17.969Z,0
2018-09-10T03:25:18.542Z,0
2018-09-10T03:26:19.114Z,0
2018-09-10T03:27:19.700Z,0
2018-09-10T03:28:20.273Z,0
2018-09-10T03:29:20.848Z,0
2018-09-10T03:30:21.421Z,0
2018-09-10T03:31:21.995Z,0
2018-09-10T03:32:22.566Z,0
2018-09-10T03:33:23.202Z,0
2018-09-10T03:34:23.724Z,0
2018-09-10T03:35:24.296Z,0
2018-09-10T03:36:24.872Z,0
2018-09-10T03:37:25.446Z,0
2018-09-10T03:38:26.033Z,0
2018-09-10T03:39:26.604Z,0
2018-09-10T03:40:27.179Z,0
2018-09-10T03:41:27.764Z,0
2018-09-10T03:42:28.338Z,0
2018-09-10T03:43:28.912Z,0
2018-09-10T03:44:29.487Z,0
2018-09-10T03:45:30.075Z,0
2018-09-10T03:46:30.648Z,0
2018-09-10T03:47:31.269Z,0
2018-09-10T03:48:31.794Z,0
2018-09-10T03:49:32.370Z,0
2018-09-10T03:50:32.951Z,0
2018-09-10T03:51:33.533Z,0
2018-09-10T03:52:34.107Z,0
2018-09-10T03:53:34.692Z,0
2018-09-10T03:54:35.266Z,0
2018-09-10T03:55:35.843Z,0
2018-09-10T03:56:36.414Z,0
2018-09-10T03:57:36.988Z,0
2018-09-10T03:58:37.560Z,0
2018-09-10T03:59:38.133Z,0
2018-09-10T04:00:38.706Z,0
2018-09-10T04:01:39.296Z,0
2018-09-10T04:02:39.851Z,0
2018-09-10T04:03:40.425Z,0
2018-09-10T04:04:40.998Z,0
2018-09-10T04:05:41.572Z,0
2018-09-10T04:06:42.147Z,0
2018-09-10T04:07:42.721Z,0
2018-09-10T04:08:43.305Z,0
2018-09-10T04:09:43.880Z,0
2018-09-10T04:10:44.455Z,0
2018-09-10T04:11:45.036Z,0
2018-09-10T04:12:45.608Z,0
2018-09-10T04:13:46.180Z,0
2018-09-10T04:14:46.753Z,0
2018-09-10T04:15:47.327Z,0
2018-09-10T04:16:47.899Z,0
2018-09-10T04:17:48.472Z,0
2018-09-10T04:18:49.047Z,0
2018-09-10T04:19:49.621Z,0
2018-09-10T04:20:50.195Z,0
2018-09-10T04:21:50.806Z,0
2018-09-10T04:22:51.352Z,0
2018-09-10T04:23:51.926Z,0
2018-09-10T04:24:52.500Z,0
2018-09-10T04:25:53.086Z,0
2018-09-10T04:26:53.648Z,0
2018-09-10T04:27:54.223Z,0
2018-09-10T04:28:54.797Z,0
2018-09-10T04:29:55.381Z,0
2018-09-10T04:30:55.957Z,0
2018-09-10T04:31:56.530Z,0
2018-09-10T04:32:57.104Z,0
2018-09-10T04:33:57.676Z,0
2018-09-10T04:34:58.248Z,0
2018-09-10T04:35:58.834Z,0
2018-09-10T04:36:59.393Z,0
2018-09-10T04:37:59.966Z,0
2018-09-10T04:39:00.539Z,0
2018-09-10T04:40:01.111Z,0
2018-09-10T04:41:01.685Z,0
2018-09-10T04:42:02.293Z,0
2018-09-10T04:43:02.844Z,0
2018-09-10T04:44:03.420Z,0
2018-09-10T04:45:04.005Z,4
2018-09-10T04:46:04.574Z,4
2018-09-10T04:47:05.150Z,0
2018-09-10T04:48:05.735Z,0
2018-09-10T04:49:06.308Z,0
2018-09-10T04:50:06.889Z,4
2018-09-10T04:51:07.462Z,4
2018-09-10T04:52:08.036Z,0
2018-09-10T04:53:08.611Z,4
2018-09-10T04:54:09.191Z,4
2018-09-10T04:55:09.756Z,4
2018-09-10T04:56:10.327Z,4
2018-09-10T04:57:10.901Z,8
2018-09-10T04:58:11.551Z,8
2018-09-10T04:59:12.049Z,8
2018-09-10T05:00:12.623Z,8
2018-09-10T05:01:13.196Z,8
2018-09-10T05:02:13.769Z,8
2018-09-10T05:03:14.353Z,8
2018-09-10T05:04:14.935Z,12
2018-09-10T05:05:15.502Z,8
2018-09-10T05:06:16.077Z,12
2018-09-10T05:07:16.650Z,12
2018-09-10T05:08:17.223Z,12
2018-09-10T05:09:17.797Z,12
2018-09-10T05:10:18.376Z,12
2018-09-10T05:11:18.957Z,12
2018-09-10T05:12:19.531Z,12
2018-09-10T05:13:20.115Z,16
2018-09-10T05:14:20.690Z,16
2018-09-10T05:15:21.276Z,16
2018-09-10T05:16:21.850Z,20
2018-09-10T05:17:22.425Z,16
2018-09-10T05:18:22.999Z,16
2018-09-10T05:19:23.574Z,16
2018-09-10T05:20:24.147Z,16
2018-09-10T05:21:24.720Z,20
2018-09-10T05:22:25.301Z,20
2018-09-10T05:23:25.881Z,24
2018-09-10T05:24:26.454Z,24
2018-09-10T05:25:27.031Z,28
2018-09-10T05:26:27.613Z,24
2018-09-10T05:27:28.197Z,28
2018-09-10T05:28:28.773Z,32
2018-09-10T05:29:29.350Z,32
2018-09-10T05:30:29.926Z,36
2018-09-10T05:31:30.513Z,40
2018-09-10T05:32:31.070Z,36
2018-09-10T05:33:31.643Z,40
2018-09-10T05:34:32.219Z,44
2018-09-10T05:35:32.797Z,44
2018-09-10T05:36:33.371Z,44
2018-09-10T05:37:33.955Z,44
2018-09-10T05:38:34.528Z,48
2018-09-10T05:39:35.100Z,48
2018-09-10T05:40:35.675Z,48
2018-09-10T05:41:36.255Z,48
2018-09-10T05:42:36.833Z,52
2018-09-10T05:43:37.416Z,52
2018-09-10T05:44:37.993Z,52
2018-09-10T05:45:38.611Z,52
2018-09-10T05:46:39.135Z,52
2018-09-10T05:47:39.903Z,56
2018-09-10T05:48:40.281Z,52
2018-09-10T05:49:40.855Z,56
2018-09-10T05:50:41.431Z,56
2018-09-10T05:51:42.006Z,56
2018-09-10T05:52:42.582Z,60
2018-09-10T05:53:43.157Z,60
2018-09-10T05:54:43.730Z,64
2018-09-10T05:55:44.304Z,68
2018-09-10T05:56:44.877Z,72
2018-09-10T05:57:45.452Z,80
2018-09-10T05:58:46.027Z,84
2018-09-10T05:59:46.601Z,88
2018-09-10T06:00:47.178Z,100
2018-09-10T06:01:47.762Z,104
2018-09-10T06:02:48.347Z,112
2018-09-10T06:03:48.923Z,112
2018-09-10T06:04:49.500Z,124
2018-09-10T06:05:50.077Z,128
2018-09-10T06:06:50.650Z,132
2018-09-10T06:07:51.225Z,132
2018-09-10T06:08:51.806Z,136
2018-09-10T06:09:52.374Z,132
2018-09-10T06:10:52.950Z,132
2018-09-10T06:11:53.523Z,132
2018-09-10T06:12:54.100Z,136
2018-09-10T06:13:54.674Z,140
2018-09-10T06:14:55.249Z,148
2018-09-10T06:15:55.825Z,156
2018-09-10T06:16:56.401Z,160
2018-09-10T06:17:56.977Z,164
2018-09-10T06:18:57.552Z,172
2018-09-10T06:19:58.128Z,172
2018-09-10T06:20:58.704Z,176
2018-09-10T06:21:59.282Z,180
2018-09-10T06:22:59.856Z,180
2018-09-10T06:24:00.433Z,184
2018-09-10T06:25:01.013Z,180
2018-09-10T06:26:01.582Z,180
2018-09-10T06:27:02.160Z,180
2018-09-10T06:28:02.747Z,176
2018-09-10T06:29:03.324Z,172
2018-09-10T06:30:03.898Z,168
2018-09-10T06:31:04.472Z,160
2018-09-10T06:32:05.057Z,160
2018-09-10T06:33:05.632Z,160
2018-09-10T06:34:06.275Z,160
2018-09-10T06:35:06.788Z,168
2018-09-10T06:36:07.365Z,176
2018-09-10T06:37:08.010Z,184
2018-09-10T06:38:08.518Z,192
2018-09-10T06:39:09.096Z,200
2018-09-10T06:40:09.668Z,204
2018-09-10T06:41:10.253Z,208
2018-09-10T06:42:10.832Z,208
2018-09-10T06:43:11.410Z,208
2018-09-10T06:44:11.987Z,208
2018-09-10T06:45:12.565Z,208
2018-09-10T06:46:13.140Z,212
2018-09-10T06:47:13.728Z,212
2018-09-10T06:48:14.312Z,208
2018-09-10T06:49:14.889Z,208
2018-09-10T06:50:15.466Z,208
2018-09-10T06:51:16.042Z,208
2018-09-10T06:52:16.620Z,208
2018-09-10T06:53:17.207Z,212
2018-09-10T06:54:17.784Z,216
2018-09-10T06:55:18.362Z,220
2018-09-10T06:56:18.938Z,224
2018-09-10T06:57:19.514Z,228
2018-09-10T06:58:20.090Z,232
2018-09-10T06:59:20.666Z,236
2018-09-10T07:00:21.315Z,244
2018-09-10T07:01:21.823Z,252
2018-09-10T07:02:22.395Z,260
2018-09-10T07:03:22.973Z,264
2018-09-10T07:04:23.549Z,268
2018-09-10T07:05:24.128Z,276
2018-09-10T07:06:24.771Z,280
2018-09-10T07:07:25.292Z,284
2018-09-10T07:08:25.869Z,284
2018-09-10T07:09:26.445Z,284
2018-09-10T07:10:27.022Z,280
2018-09-10T07:11:27.598Z,280
2018-09-10T07:12:28.176Z,280
2018-09-10T07:13:28.752Z,284
2018-09-10T07:14:29.330Z,284
2018-09-10T07:15:29.906Z,284
2018-09-10T07:16:30.481Z,288
2018-09-10T07:17:31.069Z,288
2018-09-10T07:18:31.669Z,296
2018-09-10T07:19:32.233Z,304
2018-09-10T07:20:32.811Z,328
2018-09-10T07:21:33.386Z,340
2018-09-10T07:22:33.963Z,324
2018-09-10T07:23:34.544Z,316
2018-09-10T07:24:35.133Z,304
2018-09-10T07:25:35.706Z,296
2018-09-10T07:26:36.292Z,288
2018-09-10T07:27:36.869Z,284
2018-09-10T07:28:37.445Z,276
2018-09-10T07:29:38.021Z,268
2018-09-10T07:30:38.597Z,264
2018-09-10T07:31:39.176Z,268
2018-09-10T07:32:39.761Z,272
2018-09-10T07:33:40.340Z,272
2018-09-10T07:34:40.991Z,272
2018-09-10T07:35:41.494Z,276
2018-09-10T07:36:42.069Z,280
2018-09-10T07:37:42.646Z,280
2018-09-10T07:38:43.225Z,280
2018-09-10T07:39:43.801Z,288
2018-09-10T07:40:44.375Z,292
2018-09-10T07:41:44.951Z,292
2018-09-10T07:42:45.527Z,296
2018-09-10T07:43:46.155Z,296
2018-09-10T07:44:46.679Z,296
2018-09-10T07:45:47.268Z,296
2018-09-10T07:46:47.844Z,296
2018-09-10T07:47:48.425Z,296
2018-09-10T07:48:49.068Z,304
2018-09-10T07:49:49.584Z,316
2018-09-10T07:50:50.160Z,320
2018-09-10T07:51:50.736Z,328
2018-09-10T07:52:51.325Z,340
2018-09-10T07:53:51.951Z,348
2018-09-10T07:54:52.488Z,356
2018-09-10T07:55:53.065Z,360
2018-09-10T07:56:53.653Z,356
2018-09-10T07:57:54.228Z,352
2018-09-10T07:58:54.805Z,352
2018-09-10T07:59:55.384Z,360
2018-09-10T08:00:55.959Z,372
2018-09-10T08:01:56.535Z,384
2018-09-10T08:02:57.143Z,396
2018-09-10T08:03:57.687Z,400
2018-09-10T08:04:58.266Z,408
2018-09-10T08:05:58.843Z,416
2018-09-10T08:06:59.417Z,420
2018-09-10T08:07:59.993Z,420
2018-09-10T08:09:00.605Z,424
2018-09-10T08:10:01.156Z,424
2018-09-10T08:11:01.741Z,432
2018-09-10T08:12:02.310Z,436
2018-09-10T08:13:02.897Z,440
2018-09-10T08:14:03.476Z,440
2018-09-10T08:15:04.051Z,436
2018-09-10T08:16:04.627Z,436
2018-09-10T08:17:05.202Z,440
2018-09-10T08:18:05.779Z,448
2018-09-10T08:19:06.362Z,448
2018-09-10T08:20:06.933Z,448
2018-09-10T08:21:07.522Z,448
2018-09-10T08:22:08.100Z,448
2018-09-10T08:23:08.676Z,448
2018-09-10T08:24:09.314Z,452
2018-09-10T08:25:09.876Z,456
2018-09-10T08:26:10.407Z,460
2018-09-10T08:27:10.984Z,464
2018-09-10T08:28:11.560Z,468
2018-09-10T08:29:12.137Z,472
2018-09-10T08:30:12.714Z,468
2018-09-10T08:31:13.291Z,460
2018-09-10T08:32:13.867Z,452
2018-09-10T08:33:14.443Z,440
2018-09-10T08:34:15.031Z,424
2018-09-10T08:35:15.621Z,412
2018-09-10T08:36:16.197Z,408
2018-09-10T08:37:16.774Z,408
2018-09-10T08:38:17.351Z,408
2018-09-10T08:39:17.930Z,400
2018-09-10T08:40:18.509Z,396
2018-09-10T08:41:19.080Z,392
2018-09-10T08:42:19.657Z,396
2018-09-10T08:43:20.234Z,408
2018-09-10T08:44:20.820Z,424
2018-09-10T08:45:21.398Z,444
2018-09-10T08:46:21.977Z,464
2018-09-10T08:47:22.554Z,480
2018-09-10T08:48:23.173Z,492
2018-09-10T08:49:23.706Z,500
2018-09-10T08:50:24.285Z,504
2018-09-10T08:51:24.863Z,508
2018-09-10T08:52:25.441Z,512
2018-09-10T08:53:26.018Z,520
2018-09-10T08:54:26.833Z,516
2018-09-10T08:55:27.334Z,520
2018-09-10T08:56:27.911Z,508
2018-09-10T08:57:28.335Z,500
2018-09-10T08:58:28.913Z,500
2018-09-10T08:59:29.492Z,504
2018-09-10T09:00:30.142Z,516
2018-09-10T09:01:30.648Z,516
2018-09-10T09:02:31.225Z,524
2018-09-10T09:03:31.802Z,520
2018-09-10T09:04:32.381Z,520
2018-09-10T09:05:32.962Z,524
2018-09-10T09:06:33.536Z,532
2018-09-10T09:07:34.125Z,548
2018-09-10T09:08:34.702Z,560
2018-09-10T09:09:35.282Z,572
2018-09-10T09:10:35.855Z,596
2018-09-10T09:11:36.443Z,620
2018-09-10T09:12:37.031Z,656
2018-09-10T09:13:37.611Z,724
2018-09-10T09:14:38.188Z,716
2018-09-10T09:15:38.764Z,744
2018-09-10T09:16:39.350Z,848
2018-09-10T09:17:39.928Z,912
2018-09-10T09:18:40.505Z,840
2018-09-10T09:19:41.085Z,788
2018-09-10T09:20:41.661Z,784
2018-09-10T09:21:42.238Z,764
2018-09-10T09:22:42.813Z,776
2018-09-10T09:23:43.391Z,728
2018-09-10T09:24:43.971Z,708
2018-09-10T09:25:44.552Z,692
2018-09-10T09:26:45.138Z,672
2018-09-10T09:27:45.718Z,660
2018-09-10T09:28:46.294Z,656
2018-09-10T09:29:46.933Z,664
2018-09-10T09:30:47.451Z,664
2018-09-10T09:31:48.030Z,680
2018-09-10T09:32:48.606Z,668
2018-09-10T09:33:49.186Z,664
2018-09-10T09:34:49.774Z,652
2018-09-10T09:35:50.354Z,640
2018-09-10T09:36:50.932Z,628
2018-09-10T09:37:51.510Z,616
2018-09-10T09:38:52.088Z,604
2018-09-10T09:39:52.667Z,584
2018-09-10T09:40:53.244Z,568
2018-09-10T09:41:53.823Z,548
2018-09-10T09:42:54.399Z,540
2018-09-10T09:43:54.977Z,536
2018-09-10T09:44:55.557Z,540
2018-09-10T09:45:56.135Z,548
2018-09-10T09:46:56.721Z,560
2018-09-10T09:47:57.300Z,572
2018-09-10T09:48:57.887Z,584
2018-09-10T09:49:58.476Z,592
2018-09-10T09:50:59.084Z,592
2018-09-10T09:51:59.633Z,588
2018-09-10T09:53:00.210Z,588
2018-09-10T09:54:00.789Z,592
2018-09-10T09:55:01.368Z,596
2018-09-10T09:56:01.956Z,600
2018-09-10T09:57:02.534Z,604
2018-09-10T09:58:03.114Z,612
2018-09-10T09:59:03.691Z,620
2018-09-10T10:00:04.268Z,620
2018-09-10T10:01:04.847Z,612
2018-09-10T10:02:05.426Z,592
2018-09-10T10:03:06.005Z,572
2018-09-10T10:04:06.620Z,552
2018-09-10T10:05:07.161Z,532
2018-09-10T10:06:07.745Z,524
2018-09-10T10:07:08.325Z,516
2018-09-10T10:08:08.912Z,516
2018-09-10T10:09:09.489Z,516
2018-09-10T10:10:10.126Z,532
2018-09-10T10:11:10.674Z,540
2018-09-10T10:12:11.302Z,556
2018-09-10T10:13:11.801Z,576
2018-09-10T10:14:12.390Z,588
2018-09-10T10:15:12.977Z,600
2018-09-10T10:16:13.559Z,604
2018-09-10T10:17:14.143Z,604
2018-09-10T10:18:14.721Z,600
2018-09-10T10:19:15.301Z,588
2018-09-10T10:20:15.891Z,576
2018-09-10T10:21:16.467Z,568
2018-09-10T10:22:17.045Z,556
2018-09-10T10:23:17.622Z,540
2018-09-10T10:24:18.211Z,528
2018-09-10T10:25:18.780Z,524
2018-09-10T10:26:19.367Z,516
2018-09-10T10:27:19.946Z,512
2018-09-10T10:28:20.576Z,508
2018-09-10T10:29:21.103Z,504
2018-09-10T10:30:21.680Z,496
2018-09-10T10:31:22.257Z,488
2018-09-10T10:32:22.835Z,484
2018-09-10T10:33:23.420Z,492
2018-09-10T10:34:24.004Z,500
2018-09-10T10:35:24.591Z,504
2018-09-10T10:36:25.172Z,504
2018-09-10T10:37:25.750Z,496
2018-09-10T10:38:26.328Z,492
2018-09-10T10:39:26.905Z,484
2018-09-10T10:40:27.485Z,480
2018-09-10T10:41:28.063Z,476
2018-09-10T10:42:28.643Z,480
2018-09-10T10:43:29.218Z,492
2018-09-10T10:44:29.806Z,504
2018-09-10T10:45:30.383Z,512
2018-09-10T10:46:30.962Z,516
2018-09-10T10:47:31.625Z,528
2018-09-10T10:48:32.122Z,544
2018-09-10T10:49:32.710Z,560
2018-09-10T10:50:33.292Z,572
2018-09-10T10:51:33.867Z,596
2018-09-10T10:52:34.444Z,624
2018-09-10T10:53:35.029Z,668
2018-09-10T10:54:35.602Z,708
2018-09-10T10:55:36.179Z,736
2018-09-10T10:56:36.755Z,744
2018-09-10T10:57:37.336Z,744
2018-09-10T10:58:37.923Z,748
2018-09-10T10:59:38.510Z,760
2018-09-10T11:00:39.090Z,772
2018-09-10T11:01:39.667Z,784
2018-09-10T11:02:40.246Z,804
2018-09-10T11:03:40.825Z,824
2018-09-10T11:04:41.409Z,832
2018-09-10T11:05:41.989Z,832
2018-09-10T11:06:42.576Z,828
2018-09-10T11:07:43.156Z,832
2018-09-10T11:08:43.732Z,828
2018-09-10T11:09:44.320Z,840
2018-09-10T11:10:44.908Z,860
2018-09-10T11:11:45.487Z,860
2018-09-10T11:12:46.063Z,872
2018-09-10T11:13:46.643Z,940
2018-09-10T11:14:47.221Z,948
2018-09-10T11:15:47.800Z,860
2018-09-10T11:16:48.384Z,820
2018-09-10T11:17:48.956Z,792
2018-09-10T11:18:49.534Z,760
2018-09-10T11:19:50.113Z,724
2018-09-10T11:20:50.690Z,672
2018-09-10T11:21:51.280Z,640
2018-09-10T11:22:51.856Z,624
2018-09-10T11:23:52.435Z,604
2018-09-10T11:24:53.022Z,592
2018-09-10T11:25:53.599Z,584
2018-09-10T11:26:54.176Z,576
2018-09-10T11:27:54.754Z,588
2018-09-10T11:28:55.334Z,604
2018-09-10T11:29:55.921Z,612
2018-09-10T11:30:56.511Z,608
2018-09-10T11:31:57.089Z,600
2018-09-10T11:32:57.672Z,588
2018-09-10T11:33:58.248Z,588
2018-09-10T11:34:58.825Z,592
2018-09-10T11:35:59.403Z,604
2018-09-10T11:36:59.981Z,612
2018-09-10T11:38:00.560Z,620
2018-09-10T11:39:01.139Z,612
2018-09-10T11:40:01.716Z,608
2018-09-10T11:41:02.295Z,604
2018-09-10T11:42:02.876Z,596
2018-09-10T11:43:03.453Z,580
2018-09-10T11:44:04.033Z,572
2018-09-10T11:45:04.611Z,560
2018-09-10T11:46:05.189Z,584
2018-09-10T11:47:05.770Z,604
2018-09-10T11:48:06.348Z,612
2018-09-10T11:49:06.926Z,616
2018-09-10T11:50:07.503Z,612
2018-09-10T11:51:08.083Z,604
2018-09-10T11:52:08.662Z,596
2018-09-10T11:53:09.245Z,576
2018-09-10T11:54:09.830Z,552
2018-09-10T11:55:10.409Z,520
2018-09-10T11:56:10.988Z,492
2018-09-10T11:57:11.566Z,476
2018-09-10T11:58:12.145Z,460
2018-09-10T11:59:12.723Z,456
2018-09-10T12:00:13.303Z,444
2018-09-10T12:01:13.882Z,424
2018-09-10T12:02:14.461Z,424
2018-09-10T12:03:15.040Z,432
2018-09-10T12:04:15.616Z,456
2018-09-10T12:05:16.195Z,472
2018-09-10T12:06:16.774Z,476
2018-09-10T12:07:17.353Z,480
2018-09-10T12:08:17.985Z,484
2018-09-10T12:09:18.511Z,488
2018-09-10T12:10:19.094Z,492
2018-09-10T12:11:19.676Z,492
2018-09-10T12:12:20.254Z,496
2018-09-10T12:13:20.830Z,480
2018-09-10T12:14:21.419Z,456
2018-09-10T12:15:21.997Z,460
2018-09-10T12:16:22.575Z,468
2018-09-10T12:17:23.154Z,472
2018-09-10T12:18:23.743Z,492
2018-09-10T12:19:24.322Z,492
2018-09-10T12:20:24.901Z,496
2018-09-10T12:21:25.543Z,492
2018-09-10T12:22:26.058Z,492
2018-09-10T12:23:26.646Z,512
2018-09-10T12:24:27.235Z,540
2018-09-10T12:25:27.814Z,564
2018-09-10T12:26:28.435Z,588
2018-09-10T12:27:28.972Z,620
2018-09-10T12:28:29.550Z,644
2018-09-10T12:29:30.129Z,664
2018-09-10T12:30:30.720Z,684
2018-09-10T12:31:31.299Z,696
2018-09-10T12:32:31.935Z,700
2018-09-10T12:33:32.457Z,704
2018-09-10T12:34:33.044Z,708
2018-09-10T12:35:33.623Z,704
2018-09-10T12:36:34.203Z,692
2018-09-10T12:37:34.781Z,672
2018-09-10T12:38:35.359Z,648
2018-09-10T12:39:36.002Z,644
2018-09-10T12:40:36.526Z,640
2018-09-10T12:41:37.106Z,640
2018-09-10T12:42:37.693Z,668
2018-09-10T12:43:38.269Z,688
2018-09-10T12:44:38.848Z,696
2018-09-10T12:45:39.428Z,708
2018-09-10T12:46:40.026Z,724
2018-09-10T12:47:40.606Z,744
2018-09-10T12:48:41.185Z,760
2018-09-10T12:49:41.764Z,768
2018-09-10T12:50:42.354Z,768
2018-09-10T12:51:42.933Z,780
2018-09-10T12:52:43.522Z,784
2018-09-10T12:53:44.102Z,800
2018-09-10T12:54:44.681Z,832
2018-09-10T12:55:45.259Z,856
2018-09-10T12:56:45.836Z,808
2018-09-10T12:57:46.417Z,808
2018-09-10T12:58:47.039Z,828
2018-09-10T12:59:47.570Z,856
2018-09-10T13:00:48.189Z,888
2018-09-10T13:01:48.728Z,908
2018-09-10T13:02:49.307Z,920
2018-09-10T13:03:49.887Z,936
2018-09-10T13:04:50.466Z,908
2018-09-10T13:05:51.043Z,868
2018-09-10T13:06:51.623Z,840
2018-09-10T13:07:52.201Z,828
2018-09-10T13:08:52.781Z,832
2018-09-10T13:09:53.359Z,884
2018-09-10T13:10:53.936Z,852
2018-09-10T13:11:54.518Z,848
2018-09-10T13:12:55.093Z,856
2018-09-10T13:13:55.679Z,872
2018-09-10T13:14:56.250Z,892
2018-09-10T13:15:56.829Z,968
2018-09-10T13:16:57.414Z,1008
2018-09-10T13:17:57.996Z,876
2018-09-10T13:18:58.576Z,824
2018-09-10T13:19:59.155Z,776
2018-09-10T13:20:59.733Z,732
2018-09-10T13:22:00.311Z,684
2018-09-10T13:23:00.890Z,648
2018-09-10T13:24:01.470Z,628
2018-09-10T13:25:02.059Z,604
2018-09-10T13:26:02.638Z,584
2018-09-10T13:27:03.215Z,580
2018-09-10T13:28:03.793Z,576
2018-09-10T13:29:04.372Z,572
2018-09-10T13:30:04.950Z,564
2018-09-10T13:31:05.533Z,560
2018-09-10T13:32:06.109Z,544
2018-09-10T13:33:06.699Z,532
2018-09-10T13:34:07.277Z,524
2018-09-10T13:35:07.867Z,516
2018-09-10T13:36:08.447Z,488
2018-09-10T13:37:09.053Z,444
2018-09-10T13:38:09.646Z,400
2018-09-10T13:39:10.179Z,392
2018-09-10T13:40:10.760Z,404
2018-09-10T13:41:11.338Z,408
2018-09-10T13:42:11.916Z,404
2018-09-10T13:43:12.518Z,404
2018-09-10T13:44:13.073Z,396
2018-09-10T13:45:13.653Z,380
2018-09-10T13:46:14.233Z,364
2018-09-10T13:47:14.808Z,344
2018-09-10T13:48:15.396Z,324
2018-09-10T13:49:15.974Z,316
2018-09-10T13:50:16.553Z,308
2018-09-10T13:51:17.131Z,296
2018-09-10T13:52:17.710Z,296
2018-09-10T13:53:18.288Z,300
2018-09-10T13:54:18.865Z,312
2018-09-10T13:55:19.443Z,324
2018-09-10T13:56:20.024Z,336
2018-09-10T13:57:20.602Z,352
2018-09-10T13:58:21.181Z,372
2018-09-10T13:59:21.760Z,396
2018-09-10T14:00:22.342Z,416
2018-09-10T14:01:22.983Z,420
2018-09-10T14:02:23.507Z,408
2018-09-10T14:03:24.084Z,388
2018-09-10T14:04:24.675Z,388
2018-09-10T14:05:25.254Z,400
2018-09-10T14:06:25.833Z,416
2018-09-10T14:07:26.415Z,420
2018-09-10T14:08:26.992Z,424
2018-09-10T14:09:27.573Z,440
2018-09-10T14:10:28.147Z,448
2018-09-10T14:11:28.725Z,452
2018-09-10T14:12:29.303Z,452
2018-09-10T14:13:29.883Z,456
2018-09-10T14:14:30.462Z,460
2018-09-10T14:15:31.055Z,460
2018-09-10T14:16:31.627Z,468